Terminal Aerodrome Forecast
Issued by NWS Paducah, KY

Home | Current Version | Previous Version | Text Only | Print | Product List | Glossary On
Versions: 1 2 3 4 5 6 7 8 9 10 11 12 13 14 15 16 17 18 19 20
000
FTUS43 KPAH 180537
TAFPAH
TAF
KPAH 180537Z 1806/1906 00000KT 6SM BR BCFG SCT120
      TEMPO 1808/1812 2SM BR
     FM181400 22005KT P6SM SCT050 BKN120 PROB30 1818/1824 5SM -SHRA
      BR BKN035
     FM190000 19002KT P6SM BKN130=

USA.gov is the U.S. government's official web portal to all federal, state and local government web resources and services.